Terminal Aerodrome Forecast
Issued by NWS Shreveport, LA

Home | Current Version | Previous Version | Text Only | Print | Product List | Glossary On
Versions: 1 2 3 4 5 6 7 8 9 10 11 12 13
538
FTUS44 KSHV 241122
TAFTYR
TAF
KTYR 241122Z 2412/2512 19005KT P6SM FEW012
      TEMPO 2413/2415 5SM BR BKN015
     FM241500 20009KT P6SM SCT020
     FM241800 18006KT P6SM BKN060
     FM250100 16005KT P6SM FEW050
     FM251000 18004KT P6SM FEW020=

USA.gov is the U.S. government's official web portal to all federal, state and local government web resources and services.